createdAt,value
2022-11-27T00:02:11.488Z,1.78
2022-11-27T00:04:38.516Z,1.70
2022-11-27T00:07:05.796Z,1.63
2022-11-27T00:09:33.432Z,1.61
2022-11-27T00:12:00.050Z,1.61
2022-11-27T00:17:09.148Z,1.64
2022-11-27T00:19:35.784Z,1.66
2022-11-27T00:22:09.765Z,1.68
2022-11-27T00:24:36.319Z,1.70
2022-11-27T00:27:02.922Z,1.67
2022-11-27T00:29:31.082Z,1.61
2022-11-27T00:31:58.730Z,1.58
2022-11-27T00:34:30.928Z,1.57
2022-11-27T00:36:57.553Z,1.54
2022-11-27T00:39:24.164Z,1.51
2022-11-27T00:41:50.779Z,1.49
2022-11-27T00:44:17.466Z,1.42
2022-11-27T00:49:26.720Z,1.34
2022-11-27T00:51:53.247Z,1.27
2022-11-27T00:54:22.852Z,1.22
2022-11-27T00:56:49.591Z,1.18
2022-11-27T00:59:16.935Z,1.09
2022-11-27T01:01:44.627Z,1.03
2022-11-27T01:04:12.179Z,0.99
2022-11-27T01:06:53.639Z,1.02
2022-11-27T01:09:29.446Z,1.06
2022-11-27T01:11:55.990Z,1.08
2022-11-27T01:14:23.077Z,1.09
2022-11-27T01:16:49.779Z,1.10
2022-11-27T01:19:20.205Z,1.09
2022-11-27T01:21:46.961Z,1.08
2022-11-27T01:24:14.419Z,1.12
2022-11-27T01:26:42.953Z,1.14
2022-11-27T01:29:12.013Z,1.18
2022-11-27T01:34:20.103Z,1.20
2022-11-27T01:39:27.925Z,1.20
2022-11-27T01:41:55.954Z,1.24
2022-11-27T01:44:43.176Z,1.24
2022-11-27T01:47:13.696Z,1.24
2022-11-27T01:49:43.586Z,1.21
2022-11-27T01:52:11.920Z,1.21
2022-11-27T01:54:43.984Z,1.19
2022-11-27T01:59:55.506Z,1.12
2022-11-27T02:02:23.068Z,1.09
2022-11-27T02:04:51.355Z,1.06
2022-11-27T02:07:25.657Z,1.05
2022-11-27T02:09:52.340Z,1.02
2022-11-27T02:12:34.076Z,1.02
2022-11-27T02:15:08.907Z,1.04
2022-11-27T02:17:41.277Z,1.06
2022-11-27T02:20:18.942Z,1.08
2022-11-27T02:22:56.569Z,1.12
2022-11-27T02:25:30.779Z,1.09
2022-11-27T02:28:22.359Z,1.02
2022-11-27T02:30:57.106Z,0.99
2022-11-27T02:36:08.151Z,0.99
2022-11-27T02:38:38.387Z,0.94
2022-11-27T02:41:06.920Z,0.87
2022-11-27T02:43:35.785Z,0.81
2022-11-27T02:46:05.563Z,0.78
2022-11-27T02:48:34.718Z,0.76
2022-11-27T02:51:02.463Z,0.79
2022-11-27T02:53:32.929Z,0.82
2022-11-27T02:56:00.904Z,0.87
2022-11-27T02:58:28.309Z,0.88
2022-11-27T03:00:56.575Z,0.87
2022-11-27T03:03:25.907Z,0.87
2022-11-27T03:05:54.607Z,0.86
2022-11-27T03:08:24.113Z,0.85
2022-11-27T03:10:54.744Z,0.82
2022-11-27T03:13:21.793Z,0.79
2022-11-27T03:15:55.737Z,0.75
2022-11-27T03:18:25.408Z,0.75
2022-11-27T03:20:58.071Z,0.74
2022-11-27T03:23:24.762Z,0.75
2022-11-27T03:25:51.599Z,0.74
2022-11-27T03:28:18.720Z,0.75
2022-11-27T03:30:45.309Z,0.75
2022-11-27T03:33:11.892Z,0.78
2022-11-27T03:35:39.183Z,0.73
2022-11-27T03:38:07.449Z,0.68
2022-11-27T03:40:39.239Z,0.64
2022-11-27T03:43:09.715Z,0.58
2022-11-27T03:45:38.996Z,0.54
2022-11-27T03:48:11.120Z,0.52
2022-11-27T03:50:46.088Z,0.53
2022-11-27T03:53:22.907Z,0.56
2022-11-27T03:55:53.793Z,0.57
2022-11-27T03:58:22.838Z,0.58
2022-11-27T04:00:51.085Z,0.57
2022-11-27T04:03:22.851Z,0.57
2022-11-27T04:05:49.605Z,0.56
2022-11-27T04:08:17.778Z,0.56
2022-11-27T04:10:44.444Z,0.54
2022-11-27T04:13:11.008Z,0.53
2022-11-27T04:15:37.629Z,0.54
2022-11-27T04:18:04.396Z,0.53
2022-11-27T04:20:31.031Z,0.53
2022-11-27T04:22:57.568Z,0.53
2022-11-27T04:25:26.084Z,0.50
2022-11-27T04:27:52.769Z,0.49
2022-11-27T04:30:19.839Z,0.50
2022-11-27T04:32:46.680Z,0.52
2022-11-27T04:35:13.188Z,0.51
2022-11-27T04:37:39.710Z,0.42
2022-11-27T04:40:06.840Z,0.29
2022-11-27T04:42:34.930Z,0.20
2022-11-27T04:45:01.670Z,0.16
2022-11-27T04:47:28.225Z,0.13
2022-11-27T04:49:54.756Z,0.13
2022-11-27T04:52:21.376Z,0.13
2022-11-27T04:54:47.979Z,0.14
2022-11-27T04:57:14.465Z,0.14
2022-11-27T04:59:42.391Z,0.14
2022-11-27T05:02:08.971Z,0.12
2022-11-27T05:04:35.593Z,0.09
2022-11-27T05:07:02.113Z,0.10
2022-11-27T05:09:28.656Z,0.10
2022-11-27T05:11:55.334Z,0.06
2022-11-27T05:14:24.108Z,0.01
2022-11-27T05:16:54.053Z,-0.01
2022-11-27T05:19:23.054Z,-0.02
2022-11-27T05:21:50.434Z,-0.05
2022-11-27T05:24:17.936Z,-0.06
2022-11-27T05:26:44.573Z,-0.08
2022-11-27T05:29:12.085Z,-0.11
2022-11-27T05:31:38.989Z,-0.13
2022-11-27T05:34:07.045Z,-0.14
2022-11-27T05:36:33.771Z,-0.14
2022-11-27T05:39:00.295Z,-0.11
2022-11-27T05:41:27.128Z,-0.11
2022-11-27T05:43:53.661Z,-0.12
2022-11-27T05:46:21.111Z,-0.15
2022-11-27T05:48:48.119Z,-0.17
2022-11-27T05:51:16.474Z,-0.16
2022-11-27T05:53:43.144Z,-0.18
2022-11-27T05:56:10.949Z,-0.24
2022-11-27T05:58:37.916Z,-0.35
2022-11-27T06:01:04.929Z,-0.46
2022-11-27T06:03:31.613Z,-0.54
2022-11-27T06:05:58.241Z,-0.59
2022-11-27T06:08:26.072Z,-0.64
2022-11-27T06:10:52.627Z,-0.71
2022-11-27T06:13:19.114Z,-0.77
2022-11-27T06:15:45.907Z,-0.83
2022-11-27T06:18:12.949Z,-0.86
2022-11-27T06:20:43.762Z,-0.90
2022-11-27T06:23:11.298Z,-0.89
2022-11-27T06:25:39.141Z,-0.85
2022-11-27T06:28:05.660Z,-0.82
2022-11-27T06:30:32.187Z,-0.80
2022-11-27T06:32:58.966Z,-0.82
2022-11-27T06:35:25.472Z,-0.83
2022-11-27T06:37:51.959Z,-0.85
2022-11-27T06:40:18.563Z,-0.85
2022-11-27T06:42:46.607Z,-0.86
2022-11-27T06:45:13.946Z,-0.84
2022-11-27T06:47:40.550Z,-0.83
2022-11-27T06:50:07.425Z,-0.82
2022-11-27T06:52:38.832Z,-0.82
2022-11-27T06:55:07.426Z,-0.83
2022-11-27T06:57:33.990Z,-0.84
2022-11-27T07:00:02.016Z,-0.85
2022-11-27T07:02:28.634Z,-0.84
2022-11-27T07:04:55.162Z,-0.85
2022-11-27T07:07:21.777Z,-0.84
2022-11-27T07:09:48.421Z,-0.89
2022-11-27T07:12:14.993Z,-0.95
2022-11-27T07:14:42.065Z,-1.02
2022-11-27T07:17:10.268Z,-1.05
2022-11-27T07:19:36.789Z,-1.06
2022-11-27T07:22:03.346Z,-1.09
2022-11-27T07:24:29.913Z,-1.11
2022-11-27T07:26:56.643Z,-1.11
2022-11-27T07:29:23.253Z,-1.11
2022-11-27T07:31:51.393Z,-1.03
2022-11-27T07:34:21.750Z,-0.88
2022-11-27T07:36:48.579Z,-0.69
2022-11-27T07:39:17.532Z,-0.52
2022-11-27T07:41:48.747Z,-0.30
2022-11-27T07:44:15.276Z,-0.06
2022-11-27T07:46:42.003Z,0.16
2022-11-27T07:49:08.505Z,0.42
2022-11-27T07:51:36.405Z,0.68
2022-11-27T07:54:02.965Z,0.94
2022-11-27T07:56:30.599Z,1.21
2022-11-27T07:58:57.937Z,1.50
2022-11-27T08:01:24.529Z,1.78
2022-11-27T08:03:51.115Z,2.03
2022-11-27T08:06:18.680Z,2.24
2022-11-27T08:08:46.989Z,2.44
2022-11-27T08:11:17.361Z,2.64
2022-11-27T08:13:43.915Z,2.85
2022-11-27T08:16:10.536Z,3.02
2022-11-27T08:18:37.092Z,3.23
2022-11-27T08:21:03.647Z,3.45
2022-11-27T08:23:30.156Z,3.67
2022-11-27T08:25:58.066Z,3.86
2022-11-27T08:28:24.761Z,4.07
2022-11-27T08:30:55.878Z,4.28
2022-11-27T08:33:22.389Z,4.43
2022-11-27T08:35:49.035Z,4.53
2022-11-27T08:38:15.604Z,4.71
2022-11-27T08:40:42.200Z,4.91
2022-11-27T08:43:10.141Z,5.07
2022-11-27T08:45:37.826Z,5.23
2022-11-27T08:48:04.657Z,5.40
2022-11-27T08:50:31.285Z,5.58
2022-11-27T08:52:57.828Z,5.76
2022-11-27T08:55:24.497Z,5.93
2022-11-27T08:57:51.264Z,6.10
2022-11-27T09:00:26.426Z,6.25
2022-11-27T09:02:54.429Z,6.42
2022-11-27T09:05:21.085Z,6.56
2022-11-27T09:07:47.856Z,6.69
2022-11-27T09:10:14.460Z,6.80
2022-11-27T09:12:43.564Z,6.86
2022-11-27T09:15:11.030Z,6.85
2022-11-27T09:17:38.973Z,6.84
2022-11-27T09:20:06.351Z,6.85
2022-11-27T09:22:33.571Z,6.94
2022-11-27T09:25:00.242Z,7.09
2022-11-27T09:27:27.439Z,7.28
2022-11-27T09:29:53.937Z,7.37
2022-11-27T09:32:22.207Z,7.46
2022-11-27T09:34:51.266Z,7.62
2022-11-27T09:37:17.995Z,7.81
2022-11-27T09:39:44.533Z,8.02
2022-11-27T09:42:18.428Z,8.26
2022-11-27T09:44:48.528Z,8.47
2022-11-27T09:47:18.781Z,8.61
2022-11-27T09:49:48.045Z,8.72
2022-11-27T09:52:20.202Z,8.82
2022-11-27T09:54:52.609Z,8.98
2022-11-27T09:57:23.422Z,9.08
2022-11-27T09:59:52.336Z,9.19
2022-11-27T10:02:21.757Z,9.31
2022-11-27T10:05:12.474Z,9.42
2022-11-27T10:07:43.175Z,9.56
2022-11-27T10:10:20.405Z,9.64
2022-11-27T10:12:51.151Z,9.77
2022-11-27T10:15:22.383Z,9.88
2022-11-27T10:17:52.313Z,9.99
2022-11-27T10:20:28.780Z,10.12
2022-11-27T10:23:00.131Z,10.29
2022-11-27T10:25:29.497Z,10.47
2022-11-27T10:28:11.390Z,10.63
2022-11-27T10:30:41.920Z,10.76
2022-11-27T10:33:13.194Z,10.87
2022-11-27T10:35:40.456Z,11.01
2022-11-27T10:38:11.547Z,11.12
2022-11-27T10:40:40.265Z,11.21
2022-11-27T10:43:10.515Z,11.32
2022-11-27T10:45:39.429Z,11.47
2022-11-27T10:48:06.605Z,11.63
2022-11-27T10:50:34.043Z,11.77
2022-11-27T10:53:02.833Z,11.94
2022-11-27T10:55:39.059Z,12.12
2022-11-27T10:58:09.774Z,12.30
2022-11-27T11:00:36.415Z,12.48
2022-11-27T11:03:04.408Z,12.64
2022-11-27T11:05:45.572Z,12.86
2022-11-27T11:08:19.928Z,13.20
2022-11-27T11:10:51.910Z,13.49
2022-11-27T11:13:19.837Z,13.78
2022-11-27T11:15:51.876Z,14.13
2022-11-27T11:18:19.343Z,14.52
2022-11-27T11:20:47.829Z,14.92
2022-11-27T11:23:21.051Z,15.31
2022-11-27T11:25:49.439Z,15.68
2022-11-27T11:28:18.570Z,16.06
2022-11-27T11:30:52.668Z,16.39
2022-11-27T11:33:19.350Z,16.64
2022-11-27T11:35:52.155Z,16.91
2022-11-27T11:38:19.307Z,17.14
2022-11-27T11:40:56.998Z,17.48
2022-11-27T11:43:27.267Z,17.90
2022-11-27T11:45:53.971Z,18.36
2022-11-27T11:48:21.667Z,18.78
2022-11-27T11:50:52.992Z,19.21
2022-11-27T11:53:23.274Z,19.59
2022-11-27T11:55:55.060Z,19.98
2022-11-27T11:58:38.291Z,20.29
2022-11-27T12:01:30.871Z,20.61
2022-11-27T12:06:59.548Z,21.03
2022-11-27T12:09:45.815Z,21.31
2022-11-27T12:12:26.491Z,21.69
2022-11-27T12:17:58.033Z,22.15
2022-11-27T12:23:50.230Z,22.63
2022-11-27T12:26:27.169Z,22.81
2022-11-27T12:29:04.523Z,22.89
2022-11-27T12:41:23.132Z,22.19
2022-11-27T12:49:33.629Z,21.55
2022-11-27T12:52:06.243Z,21.34
2022-11-27T12:57:47.372Z,20.11
2022-11-27T13:03:14.272Z,18.30
2022-11-27T13:05:49.920Z,17.34
2022-11-27T13:11:08.743Z,15.67
2022-11-27T13:13:42.955Z,15.00
2022-11-27T13:16:15.579Z,14.38
2022-11-27T13:18:49.155Z,13.80
2022-11-27T13:21:20.696Z,13.25
2022-11-27T13:23:51.634Z,12.85
2022-11-27T13:26:27.594Z,12.57
2022-11-27T13:28:59.285Z,12.26
2022-11-27T13:31:37.808Z,11.98
2022-11-27T13:34:11.628Z,11.76
2022-11-27T13:36:49.497Z,11.54
2022-11-27T13:42:07.815Z,11.13
2022-11-27T13:47:27.100Z,10.68
2022-11-27T13:50:03.159Z,10.46
2022-11-27T13:52:30.555Z,10.26
2022-11-27T13:55:01.212Z,10.13
2022-11-27T14:00:16.594Z,9.87
2022-11-27T14:05:41.884Z,9.50
2022-11-27T14:08:22.719Z,9.37
2022-11-27T14:10:54.454Z,9.30
2022-11-27T14:19:22.530Z,9.02
2022-11-27T14:24:44.041Z,8.79
2022-11-27T14:33:06.786Z,8.36
2022-11-27T14:35:34.280Z,8.23
2022-11-27T14:40:54.139Z,8.04
2022-11-27T14:46:18.368Z,7.86
2022-11-27T14:51:36.834Z,7.63
2022-11-27T15:08:01.761Z,7.12
2022-11-27T15:10:38.141Z,7.02
2022-11-27T15:13:07.073Z,6.90
2022-11-27T15:21:37.731Z,6.67
2022-11-27T15:30:19.119Z,6.29
2022-11-27T15:35:35.006Z,6.19
2022-11-27T15:46:59.074Z,5.91
2022-11-27T15:49:29.707Z,5.83
2022-11-27T23:38:48.786Z,2.63
